sensor_id;sensor_type;location;lat;lon;timestamp;P1;durP1;ratioP1;P2;durP2;ratioP2
6269;SDS011;3168;51.684;6.954;2023-04-24T00:01:00;1.00;;;1.00;;
6269;SDS011;3168;51.684;6.954;2023-04-24T00:03:26;1.37;;;1.27;;
6269;SDS011;3168;51.684;6.954;2023-04-24T00:05:52;3.37;;;1.20;;
6269;SDS011;3168;51.684;6.954;2023-04-24T00:08:18;1.07;;;1.07;;
6269;SDS011;3168;51.684;6.954;2023-04-24T00:10:43;1.63;;;1.07;;
6269;SDS011;3168;51.684;6.954;2023-04-24T00:13:09;2.20;;;0.90;;
6269;SDS011;3168;51.684;6.954;2023-04-24T00:15:35;0.80;;;0.80;;
6269;SDS011;3168;51.684;6.954;2023-04-24T00:18:01;1.27;;;1.10;;
6269;SDS011;3168;51.684;6.954;2023-04-24T00:20:27;1.10;;;1.10;;
6269;SDS011;3168;51.684;6.954;2023-04-24T00:22:52;3.33;;;2.40;;
6269;SDS011;3168;51.684;6.954;2023-04-24T00:25:18;0.80;;;0.80;;
6269;SDS011;3168;51.684;6.954;2023-04-24T00:27:44;0.80;;;0.80;;
6269;SDS011;3168;51.684;6.954;2023-04-24T00:30:10;0.80;;;0.80;;
6269;SDS011;3168;51.684;6.954;2023-04-24T00:32:36;0.67;;;0.67;;
6269;SDS011;3168;51.684;6.954;2023-04-24T00:35:02;1.00;;;1.00;;
6269;SDS011;3168;51.684;6.954;2023-04-24T00:37:28;1.13;;;1.13;;
6269;SDS011;3168;51.684;6.954;2023-04-24T00:39:54;1.50;;;1.50;;
6269;SDS011;3168;51.684;6.954;2023-04-24T00:42:20;0.93;;;0.93;;
6269;SDS011;3168;51.684;6.954;2023-04-24T00:44:46;1.47;;;1.37;;
6269;SDS011;3168;51.684;6.954;2023-04-24T00:47:12;0.80;;;0.80;;
6269;SDS011;3168;51.684;6.954;2023-04-24T00:49:38;1.43;;;1.43;;
6269;SDS011;3168;51.684;6.954;2023-04-24T00:52:03;0.93;;;0.93;;
6269;SDS011;3168;51.684;6.954;2023-04-24T00:54:29;1.20;;;1.20;;
6269;SDS011;3168;51.684;6.954;2023-04-24T00:56:55;1.47;;;1.37;;
6269;SDS011;3168;51.684;6.954;2023-04-24T00:59:21;6.93;;;1.57;;
6269;SDS011;3168;51.684;6.954;2023-04-24T01:01:47;1.30;;;1.30;;
6269;SDS011;3168;51.684;6.954;2023-04-24T01:04:13;2.93;;;1.80;;
6269;SDS011;3168;51.684;6.954;2023-04-24T01:06:39;10.60;;;1.70;;
6269;SDS011;3168;51.684;6.954;2023-04-24T01:09:05;1.87;;;1.80;;
6269;SDS011;3168;51.684;6.954;2023-04-24T01:11:30;1.07;;;1.07;;
6269;SDS011;3168;51.684;6.954;2023-04-24T01:13:57;1.20;;;1.20;;
6269;SDS011;3168;51.684;6.954;2023-04-24T01:16:23;1.87;;;1.77;;
6269;SDS011;3168;51.684;6.954;2023-04-24T01:18:48;2.07;;;1.97;;
6269;SDS011;3168;51.684;6.954;2023-04-24T01:21:15;1.00;;;1.00;;
6269;SDS011;3168;51.684;6.954;2023-04-24T01:23:40;2.43;;;1.17;;
6269;SDS011;3168;51.684;6.954;2023-04-24T01:26:06;2.20;;;2.10;;
6269;SDS011;3168;51.684;6.954;2023-04-24T01:28:32;1.63;;;1.30;;
6269;SDS011;3168;51.684;6.954;2023-04-24T01:30:57;2.23;;;1.80;;
6269;SDS011;3168;51.684;6.954;2023-04-24T01:33:23;2.90;;;2.00;;
6269;SDS011;3168;51.684;6.954;2023-04-24T01:35:49;2.30;;;1.80;;
6269;SDS011;3168;51.684;6.954;2023-04-24T01:38:15;1.70;;;1.60;;
6269;SDS011;3168;51.684;6.954;2023-04-24T01:40:41;2.23;;;2.13;;
6269;SDS011;3168;51.684;6.954;2023-04-24T01:43:07;1.87;;;1.87;;
6269;SDS011;3168;51.684;6.954;2023-04-24T01:45:33;3.80;;;1.67;;
6269;SDS011;3168;51.684;6.954;2023-04-24T01:47:58;2.00;;;1.90;;
6269;SDS011;3168;51.684;6.954;2023-04-24T01:50:24;1.90;;;1.80;;
6269;SDS011;3168;51.684;6.954;2023-04-24T01:52:50;2.23;;;2.13;;
6269;SDS011;3168;51.684;6.954;2023-04-24T01:55:16;3.97;;;2.27;;
6269;SDS011;3168;51.684;6.954;2023-04-24T01:57:43;2.07;;;1.97;;
6269;SDS011;3168;51.684;6.954;2023-04-24T02:00:15;2.53;;;2.43;;
6269;SDS011;3168;51.684;6.954;2023-04-24T02:02:41;2.30;;;2.20;;
6269;SDS011;3168;51.684;6.954;2023-04-24T02:05:08;2.83;;;2.63;;
6269;SDS011;3168;51.684;6.954;2023-04-24T02:07:33;5.80;;;3.00;;
6269;SDS011;3168;51.684;6.954;2023-04-24T02:09:59;3.30;;;3.10;;
6269;SDS011;3168;51.684;6.954;2023-04-24T02:12:25;4.13;;;3.77;;
6269;SDS011;3168;51.684;6.954;2023-04-24T02:14:51;3.07;;;2.73;;
6269;SDS011;3168;51.684;6.954;2023-04-24T02:17:18;3.40;;;2.70;;
6269;SDS011;3168;51.684;6.954;2023-04-24T02:19:43;3.40;;;3.20;;
6269;SDS011;3168;51.684;6.954;2023-04-24T02:22:09;2.93;;;2.83;;
6269;SDS011;3168;51.684;6.954;2023-04-24T02:24:35;3.60;;;3.27;;
6269;SDS011;3168;51.684;6.954;2023-04-24T02:27:01;1.90;;;1.80;;
6269;SDS011;3168;51.684;6.954;2023-04-24T02:29:27;3.80;;;3.50;;
6269;SDS011;3168;51.684;6.954;2023-04-24T02:31:52;3.33;;;3.07;;
6269;SDS011;3168;51.684;6.954;2023-04-24T02:34:18;2.53;;;2.43;;
6269;SDS011;3168;51.684;6.954;2023-04-24T02:36:44;4.07;;;3.83;;
6269;SDS011;3168;51.684;6.954;2023-04-24T02:39:10;3.30;;;3.10;;
6269;SDS011;3168;51.684;6.954;2023-04-24T02:41:36;4.40;;;4.10;;
6269;SDS011;3168;51.684;6.954;2023-04-24T02:44:01;2.40;;;2.30;;
6269;SDS011;3168;51.684;6.954;2023-04-24T02:46:27;4.03;;;3.73;;
6269;SDS011;3168;51.684;6.954;2023-04-24T02:48:53;5.23;;;4.07;;
6269;SDS011;3168;51.684;6.954;2023-04-24T02:51:19;3.63;;;3.00;;
6269;SDS011;3168;51.684;6.954;2023-04-24T02:53:45;4.67;;;4.33;;
6269;SDS011;3168;51.684;6.954;2023-04-24T02:56:11;4.87;;;4.43;;
6269;SDS011;3168;51.684;6.954;2023-04-24T02:58:38;4.80;;;4.50;;
6269;SDS011;3168;51.684;6.954;2023-04-24T03:01:04;5.63;;;4.00;;
6269;SDS011;3168;51.684;6.954;2023-04-24T03:03:30;6.43;;;4.83;;
6269;SDS011;3168;51.684;6.954;2023-04-24T03:05:56;3.57;;;3.37;;
6269;SDS011;3168;51.684;6.954;2023-04-24T03:08:22;5.90;;;5.10;;
6269;SDS011;3168;51.684;6.954;2023-04-24T03:10:48;7.30;;;5.37;;
6269;SDS011;3168;51.684;6.954;2023-04-24T03:13:14;4.57;;;4.30;;
6269;SDS011;3168;51.684;6.954;2023-04-24T03:15:39;10.03;;;4.10;;
6269;SDS011;3168;51.684;6.954;2023-04-24T03:18:05;8.73;;;5.53;;
6269;SDS011;3168;51.684;6.954;2023-04-24T03:20:31;12.23;;;6.23;;
6269;SDS011;3168;51.684;6.954;2023-04-24T03:22:57;5.23;;;4.73;;
6269;SDS011;3168;51.684;6.954;2023-04-24T03:25:23;6.00;;;5.27;;
6269;SDS011;3168;51.684;6.954;2023-04-24T03:27:48;6.23;;;5.67;;
6269;SDS011;3168;51.684;6.954;2023-04-24T03:30:15;14.53;;;5.90;;
6269;SDS011;3168;51.684;6.954;2023-04-24T03:32:41;4.90;;;4.47;;
6269;SDS011;3168;51.684;6.954;2023-04-24T03:35:07;10.43;;;6.10;;
6269;SDS011;3168;51.684;6.954;2023-04-24T03:37:34;11.33;;;7.20;;
6269;SDS011;3168;51.684;6.954;2023-04-24T03:40:00;6.77;;;5.23;;
6269;SDS011;3168;51.684;6.954;2023-04-24T03:42:26;14.93;;;7.80;;
6269;SDS011;3168;51.684;6.954;2023-04-24T03:44:52;6.17;;;5.57;;
6269;SDS011;3168;51.684;6.954;2023-04-24T03:47:18;9.67;;;6.70;;
6269;SDS011;3168;51.684;6.954;2023-04-24T03:49:44;4.23;;;3.90;;
6269;SDS011;3168;51.684;6.954;2023-04-24T03:52:10;10.40;;;5.93;;
6269;SDS011;3168;51.684;6.954;2023-04-24T03:54:35;4.03;;;3.73;;
6269;SDS011;3168;51.684;6.954;2023-04-24T03:57:01;7.27;;;6.57;;
6269;SDS011;3168;51.684;6.954;2023-04-24T03:59:27;9.33;;;5.63;;
6269;SDS011;3168;51.684;6.954;2023-04-24T04:01:54;14.00;;;7.93;;
6269;SDS011;3168;51.684;6.954;2023-04-24T04:04:19;7.85;;;6.50;;
6269;SDS011;3168;51.684;6.954;2023-04-24T04:06:45;5.73;;;5.03;;
6269;SDS011;3168;51.684;6.954;2023-04-24T04:09:11;21.93;;;7.30;;
6269;SDS011;3168;51.684;6.954;2023-04-24T04:11:37;9.50;;;6.93;;
6269;SDS011;3168;51.684;6.954;2023-04-24T04:14:03;20.77;;;8.30;;
6269;SDS011;3168;51.684;6.954;2023-04-24T04:16:29;13.53;;;7.60;;
6269;SDS011;3168;51.684;6.954;2023-04-24T04:18:55;7.83;;;6.90;;
6269;SDS011;3168;51.684;6.954;2023-04-24T04:21:21;7.50;;;6.73;;
6269;SDS011;3168;51.684;6.954;2023-04-24T04:23:46;7.80;;;5.00;;
6269;SDS011;3168;51.684;6.954;2023-04-24T04:26:12;7.90;;;6.57;;
6269;SDS011;3168;51.684;6.954;2023-04-24T04:28:38;9.13;;;8.00;;
6269;SDS011;3168;51.684;6.954;2023-04-24T04:31:04;8.63;;;5.50;;
6269;SDS011;3168;51.684;6.954;2023-04-24T04:33:30;6.23;;;5.70;;
6269;SDS011;3168;51.684;6.954;2023-04-24T04:35:56;9.30;;;7.57;;
6269;SDS011;3168;51.684;6.954;2023-04-24T04:38:22;6.63;;;6.00;;
6269;SDS011;3168;51.684;6.954;2023-04-24T04:40:47;10.03;;;5.23;;
6269;SDS011;3168;51.684;6.954;2023-04-24T04:43:13;8.87;;;6.47;;
6269;SDS011;3168;51.684;6.954;2023-04-24T04:45:40;9.43;;;6.30;;
6269;SDS011;3168;51.684;6.954;2023-04-24T04:48:05;7.83;;;5.73;;
6269;SDS011;3168;51.684;6.954;2023-04-24T04:50:32;10.07;;;6.10;;
6269;SDS011;3168;51.684;6.954;2023-04-24T04:52:59;7.00;;;6.30;;
6269;SDS011;3168;51.684;6.954;2023-04-24T04:55:24;8.67;;;6.37;;
6269;SDS011;3168;51.684;6.954;2023-04-24T04:57:50;5.50;;;5.20;;
6269;SDS011;3168;51.684;6.954;2023-04-24T05:00:16;8.80;;;6.50;;
6269;SDS011;3168;51.684;6.954;2023-04-24T05:02:42;7.27;;;6.60;;
6269;SDS011;3168;51.684;6.954;2023-04-24T05:05:08;18.48;;;6.35;;
6269;SDS011;3168;51.684;6.954;2023-04-24T05:07:34;7.30;;;6.00;;
6269;SDS011;3168;51.684;6.954;2023-04-24T05:10:00;9.40;;;6.30;;
6269;SDS011;3168;51.684;6.954;2023-04-24T05:12:25;7.53;;;5.87;;
6269;SDS011;3168;51.684;6.954;2023-04-24T05:14:51;6.07;;;5.53;;
6269;SDS011;3168;51.684;6.954;2023-04-24T05:17:17;4.90;;;4.43;;
6269;SDS011;3168;51.684;6.954;2023-04-24T05:19:43;8.17;;;6.70;;
6269;SDS011;3168;51.684;6.954;2023-04-24T05:22:09;5.17;;;4.87;;
6269;SDS011;3168;51.684;6.954;2023-04-24T05:24:35;5.80;;;5.40;;
6269;SDS011;3168;51.684;6.954;2023-04-24T05:27:01;6.33;;;5.77;;
6269;SDS011;3168;51.684;6.954;2023-04-24T05:29:26;3.90;;;3.60;;
6269;SDS011;3168;51.684;6.954;2023-04-24T05:31:52;4.93;;;4.63;;
6269;SDS011;3168;51.684;6.954;2023-04-24T05:34:18;7.73;;;5.40;;
6269;SDS011;3168;51.684;6.954;2023-04-24T05:36:44;5.57;;;4.27;;
6269;SDS011;3168;51.684;6.954;2023-04-24T05:39:09;3.13;;;2.93;;
6269;SDS011;3168;51.684;6.954;2023-04-24T05:41:35;4.27;;;3.90;;
6269;SDS011;3168;51.684;6.954;2023-04-24T05:44:01;4.33;;;4.03;;
6269;SDS011;3168;51.684;6.954;2023-04-24T05:46:27;4.53;;;4.23;;
6269;SDS011;3168;51.684;6.954;2023-04-24T05:48:53;6.27;;;4.70;;
6269;SDS011;3168;51.684;6.954;2023-04-24T05:51:18;4.93;;;3.90;;
6269;SDS011;3168;51.684;6.954;2023-04-24T05:53:44;3.10;;;2.90;;
6269;SDS011;3168;51.684;6.954;2023-04-24T05:56:10;9.63;;;4.33;;
6269;SDS011;3168;51.684;6.954;2023-04-24T05:58:36;4.33;;;4.03;;
6269;SDS011;3168;51.684;6.954;2023-04-24T06:01:03;5.27;;;4.97;;
6269;SDS011;3168;51.684;6.954;2023-04-24T06:03:29;6.23;;;5.13;;
6269;SDS011;3168;51.684;6.954;2023-04-24T06:05:54;3.50;;;3.20;;
6269;SDS011;3168;51.684;6.954;2023-04-24T06:08:20;7.53;;;4.17;;
6269;SDS011;3168;51.684;6.954;2023-04-24T06:10:46;4.03;;;3.73;;
6269;SDS011;3168;51.684;6.954;2023-04-24T06:13:12;6.20;;;5.63;;
6269;SDS011;3168;51.684;6.954;2023-04-24T06:15:38;4.07;;;3.77;;
6269;SDS011;3168;51.684;6.954;2023-04-24T06:18:04;4.97;;;4.40;;
6269;SDS011;3168;51.684;6.954;2023-04-24T06:20:30;9.43;;;4.20;;
6269;SDS011;3168;51.684;6.954;2023-04-24T06:22:55;5.90;;;5.50;;
6269;SDS011;3168;51.684;6.954;2023-04-24T06:25:21;5.30;;;4.97;;
6269;SDS011;3168;51.684;6.954;2023-04-24T06:27:47;6.83;;;6.17;;
6269;SDS011;3168;51.684;6.954;2023-04-24T06:30:13;5.50;;;5.00;;
6269;SDS011;3168;51.684;6.954;2023-04-24T06:32:39;4.47;;;4.27;;
6269;SDS011;3168;51.684;6.954;2023-04-24T06:35:05;6.13;;;5.63;;
6269;SDS011;3168;51.684;6.954;2023-04-24T06:37:31;5.20;;;4.70;;
6269;SDS011;3168;51.684;6.954;2023-04-24T06:39:58;5.90;;;5.53;;
6269;SDS011;3168;51.684;6.954;2023-04-24T06:42:24;4.47;;;4.10;;
6269;SDS011;3168;51.684;6.954;2023-04-24T06:44:50;5.80;;;5.40;;
6269;SDS011;3168;51.684;6.954;2023-04-24T06:47:15;4.20;;;3.60;;
6269;SDS011;3168;51.684;6.954;2023-04-24T06:49:41;5.33;;;4.97;;
6269;SDS011;3168;51.684;6.954;2023-04-24T06:52:07;4.93;;;4.63;;
6269;SDS011;3168;51.684;6.954;2023-04-24T06:54:33;6.00;;;5.40;;
6269;SDS011;3168;51.684;6.954;2023-04-24T06:56:59;4.63;;;4.27;;
6269;SDS011;3168;51.684;6.954;2023-04-24T06:59:24;7.70;;;5.30;;
6269;SDS011;3168;51.684;6.954;2023-04-24T07:01:50;6.33;;;5.80;;
6269;SDS011;3168;51.684;6.954;2023-04-24T07:04:16;4.10;;;3.80;;
6269;SDS011;3168;51.684;6.954;2023-04-24T07:06:42;5.23;;;4.83;;
6269;SDS011;3168;51.684;6.954;2023-04-24T07:09:08;4.60;;;4.30;;
6269;SDS011;3168;51.684;6.954;2023-04-24T07:11:35;6.10;;;5.53;;
6269;SDS011;3168;51.684;6.954;2023-04-24T07:14:00;5.10;;;4.70;;
6269;SDS011;3168;51.684;6.954;2023-04-24T07:16:27;4.30;;;4.07;;
6269;SDS011;3168;51.684;6.954;2023-04-24T07:18:53;4.33;;;4.03;;
6269;SDS011;3168;51.684;6.954;2023-04-24T07:21:19;3.63;;;3.33;;
6269;SDS011;3168;51.684;6.954;2023-04-24T07:23:45;14.07;;;9.40;;
6269;SDS011;3168;51.684;6.954;2023-04-24T07:26:11;4.33;;;4.07;;
6269;SDS011;3168;51.684;6.954;2023-04-24T07:28:36;3.17;;;2.97;;
6269;SDS011;3168;51.684;6.954;2023-04-24T07:31:03;8.20;;;2.57;;
6269;SDS011;3168;51.684;6.954;2023-04-24T07:33:29;2.80;;;2.70;;
6269;SDS011;3168;51.684;6.954;2023-04-24T07:35:55;3.83;;;1.87;;
6269;SDS011;3168;51.684;6.954;2023-04-24T07:38:20;3.67;;;2.23;;
6269;SDS011;3168;51.684;6.954;2023-04-24T07:40:46;1.93;;;1.83;;
6269;SDS011;3168;51.684;6.954;2023-04-24T07:43:12;2.13;;;2.03;;
6269;SDS011;3168;51.684;6.954;2023-04-24T07:45:38;1.70;;;1.60;;
6269;SDS011;3168;51.684;6.954;2023-04-24T07:48:04;1.33;;;1.23;;
6269;SDS011;3168;51.684;6.954;2023-04-24T07:50:30;1.93;;;1.83;;
6269;SDS011;3168;51.684;6.954;2023-04-24T07:52:56;1.40;;;1.40;;
6269;SDS011;3168;51.684;6.954;2023-04-24T07:55:21;1.27;;;1.20;;
6269;SDS011;3168;51.684;6.954;2023-04-24T07:57:47;12.40;;;1.67;;
6269;SDS011;3168;51.684;6.954;2023-04-24T08:00:13;1.10;;;1.10;;
6269;SDS011;3168;51.684;6.954;2023-04-24T08:02:39;1.47;;;1.47;;
6269;SDS011;3168;51.684;6.954;2023-04-24T08:05:06;1.08;;;1.08;;
6269;SDS011;3168;51.684;6.954;2023-04-24T08:07:32;3.60;;;1.43;;
6269;SDS011;3168;51.684;6.954;2023-04-24T08:09:57;0.83;;;0.83;;
6269;SDS011;3168;51.684;6.954;2023-04-24T08:12:23;0.77;;;0.77;;
6269;SDS011;3168;51.684;6.954;2023-04-24T08:14:49;1.20;;;1.20;;
6269;SDS011;3168;51.684;6.954;2023-04-24T08:17:16;0.80;;;0.80;;
6269;SDS011;3168;51.684;6.954;2023-04-24T08:19:41;1.03;;;1.03;;
6269;SDS011;3168;51.684;6.954;2023-04-24T08:22:08;1.53;;;1.30;;
6269;SDS011;3168;51.684;6.954;2023-04-24T08:24:33;2.67;;;1.40;;
6269;SDS011;3168;51.684;6.954;2023-04-24T08:26:59;1.00;;;1.00;;
6269;SDS011;3168;51.684;6.954;2023-04-24T08:29:25;1.20;;;1.10;;
6269;SDS011;3168;51.684;6.954;2023-04-24T08:31:52;1.00;;;1.00;;
6269;SDS011;3168;51.684;6.954;2023-04-24T08:34:17;1.43;;;1.43;;
6269;SDS011;3168;51.684;6.954;2023-04-24T08:36:43;1.70;;;1.70;;
6269;SDS011;3168;51.684;6.954;2023-04-24T08:39:09;1.37;;;1.20;;
6269;SDS011;3168;51.684;6.954;2023-04-24T08:41:36;2.00;;;1.57;;
6269;SDS011;3168;51.684;6.954;2023-04-24T08:44:02;1.97;;;1.90;;
6269;SDS011;3168;51.684;6.954;2023-04-24T08:46:27;1.30;;;1.20;;
6269;SDS011;3168;51.684;6.954;2023-04-24T08:48:53;2.20;;;1.57;;
6269;SDS011;3168;51.684;6.954;2023-04-24T08:51:19;1.00;;;1.00;;
6269;SDS011;3168;51.684;6.954;2023-04-24T08:53:45;1.70;;;1.57;;
6269;SDS011;3168;51.684;6.954;2023-04-24T08:56:11;1.30;;;1.30;;
6269;SDS011;3168;51.684;6.954;2023-04-24T08:58:36;1.50;;;1.50;;
6269;SDS011;3168;51.684;6.954;2023-04-24T09:01:02;1.07;;;1.07;;
6269;SDS011;3168;51.684;6.954;2023-04-24T09:03:28;1.00;;;1.00;;
6269;SDS011;3168;51.684;6.954;2023-04-24T09:05:54;1.33;;;1.33;;
6269;SDS011;3168;51.684;6.954;2023-04-24T09:08:20;1.53;;;1.47;;
6269;SDS011;3168;51.684;6.954;2023-04-24T09:10:45;1.00;;;1.00;;
6269;SDS011;3168;51.684;6.954;2023-04-24T09:13:11;1.43;;;1.37;;
6269;SDS011;3168;51.684;6.954;2023-04-24T09:15:38;1.60;;;1.50;;
6269;SDS011;3168;51.684;6.954;2023-04-24T09:18:03;1.13;;;1.13;;
6269;SDS011;3168;51.684;6.954;2023-04-24T09:20:29;2.40;;;1.63;;
6269;SDS011;3168;51.684;6.954;2023-04-24T09:22:56;0.97;;;0.97;;
6269;SDS011;3168;51.684;6.954;2023-04-24T09:25:22;0.87;;;0.87;;
6269;SDS011;3168;51.684;6.954;2023-04-24T09:27:48;1.23;;;1.10;;
6269;SDS011;3168;51.684;6.954;2023-04-24T09:30:14;1.10;;;1.10;;
6269;SDS011;3168;51.684;6.954;2023-04-24T09:32:40;2.63;;;2.27;;
6269;SDS011;3168;51.684;6.954;2023-04-24T09:35:07;2.47;;;2.27;;
6269;SDS011;3168;51.684;6.954;2023-04-24T09:37:35;1.07;;;1.07;;
6269;SDS011;3168;51.684;6.954;2023-04-24T09:42:34;2.33;;;2.13;;
6269;SDS011;3168;51.684;6.954;2023-04-24T09:44:59;1.87;;;1.77;;
6269;SDS011;3168;51.684;6.954;2023-04-24T09:47:25;1.63;;;1.63;;
6269;SDS011;3168;51.684;6.954;2023-04-24T09:49:51;1.60;;;1.50;;
6269;SDS011;3168;51.684;6.954;2023-04-24T09:52:17;2.80;;;2.57;;
6269;SDS011;3168;51.684;6.954;2023-04-24T09:54:43;2.57;;;2.47;;
6269;SDS011;3168;51.684;6.954;2023-04-24T09:57:08;2.37;;;2.27;;
6269;SDS011;3168;51.684;6.954;2023-04-24T09:59:35;2.73;;;2.63;;
6269;SDS011;3168;51.684;6.954;2023-04-24T10:02:01;2.00;;;1.90;;
6269;SDS011;3168;51.684;6.954;2023-04-24T10:04:28;2.97;;;2.77;;
6269;SDS011;3168;51.684;6.954;2023-04-24T10:06:54;3.13;;;2.07;;
6269;SDS011;3168;51.684;6.954;2023-04-24T10:09:20;2.43;;;2.30;;
6269;SDS011;3168;51.684;6.954;2023-04-24T10:11:46;3.00;;;2.80;;
6269;SDS011;3168;51.684;6.954;2023-04-24T10:14:13;6.43;;;4.00;;
6269;SDS011;3168;51.684;6.954;2023-04-24T10:16:40;4.00;;;3.73;;
6269;SDS011;3168;51.684;6.954;2023-04-24T10:19:06;2.53;;;2.30;;
6269;SDS011;3168;51.684;6.954;2023-04-24T10:21:32;3.87;;;3.57;;
6269;SDS011;3168;51.684;6.954;2023-04-24T10:23:58;7.53;;;2.97;;
6269;SDS011;3168;51.684;6.954;2023-04-24T10:26:24;4.20;;;2.50;;
6269;SDS011;3168;51.684;6.954;2023-04-24T10:28:50;2.60;;;2.50;;
6269;SDS011;3168;51.684;6.954;2023-04-24T10:31:16;2.70;;;1.63;;
6269;SDS011;3168;51.684;6.954;2023-04-24T10:33:42;2.23;;;2.13;;
6269;SDS011;3168;51.684;6.954;2023-04-24T10:36:08;8.03;;;2.37;;
6269;SDS011;3168;51.684;6.954;2023-04-24T10:38:35;1.57;;;1.47;;
6269;SDS011;3168;51.684;6.954;2023-04-24T10:41:07;5.70;;;2.30;;
6269;SDS011;3168;51.684;6.954;2023-04-24T10:43:33;4.03;;;2.60;;
6269;SDS011;3168;51.684;6.954;2023-04-24T10:46:00;3.53;;;2.93;;
6269;SDS011;3168;51.684;6.954;2023-04-24T10:48:26;5.67;;;2.30;;
6269;SDS011;3168;51.684;6.954;2023-04-24T10:50:52;7.20;;;3.30;;
6269;SDS011;3168;51.684;6.954;2023-04-24T10:53:20;2.40;;;1.73;;
6269;SDS011;3168;51.684;6.954;2023-04-24T10:55:48;4.30;;;1.63;;
6269;SDS011;3168;51.684;6.954;2023-04-24T10:58:13;6.13;;;2.43;;
6269;SDS011;3168;51.684;6.954;2023-04-24T11:00:40;7.87;;;2.70;;
6269;SDS011;3168;51.684;6.954;2023-04-24T11:03:22;9.73;;;2.30;;
6269;SDS011;3168;51.684;6.954;2023-04-24T11:08:22;3.93;;;3.00;;
6269;SDS011;3168;51.684;6.954;2023-04-24T11:10:54;4.20;;;2.97;;
6269;SDS011;3168;51.684;6.954;2023-04-24T11:13:15;11.30;;;3.10;;
6269;SDS011;3168;51.684;6.954;2023-04-24T11:15:41;9.50;;;2.00;;
6269;SDS011;3168;51.684;6.954;2023-04-24T11:18:07;2.40;;;2.07;;
6269;SDS011;3168;51.684;6.954;2023-04-24T11:20:32;6.23;;;3.10;;
6269;SDS011;3168;51.684;6.954;2023-04-24T11:23:02;8.23;;;3.43;;
6269;SDS011;3168;51.684;6.954;2023-04-24T11:25:24;1.87;;;1.77;;
6269;SDS011;3168;51.684;6.954;2023-04-24T11:27:50;12.50;;;2.40;;
6269;SDS011;3168;51.684;6.954;2023-04-24T11:30:17;2.80;;;1.97;;
6269;SDS011;3168;51.684;6.954;2023-04-24T11:32:43;3.23;;;2.40;;
6269;SDS011;3168;51.684;6.954;2023-04-24T11:35:13;5.00;;;2.93;;
6269;SDS011;3168;51.684;6.954;2023-04-24T11:37:37;2.77;;;2.57;;
6269;SDS011;3168;51.684;6.954;2023-04-24T11:40:02;2.33;;;2.20;;
6269;SDS011;3168;51.684;6.954;2023-04-24T11:42:29;2.40;;;2.40;;
6269;SDS011;3168;51.684;6.954;2023-04-24T11:44:55;4.07;;;3.87;;
6269;SDS011;3168;51.684;6.954;2023-04-24T11:49:53;2.53;;;2.17;;
6269;SDS011;3168;51.684;6.954;2023-04-24T11:52:19;2.20;;;1.97;;
6269;SDS011;3168;51.684;6.954;2023-04-24T11:54:47;6.13;;;2.37;;
6269;SDS011;3168;51.684;6.954;2023-04-24T11:57:12;4.47;;;2.20;;
6269;SDS011;3168;51.684;6.954;2023-04-24T11:59:37;9.90;;;2.33;;
6269;SDS011;3168;51.684;6.954;2023-04-24T12:02:03;2.70;;;2.37;;
6269;SDS011;3168;51.684;6.954;2023-04-24T12:04:37;3.70;;;1.53;;
6269;SDS011;3168;51.684;6.954;2023-04-24T12:06:58;1.30;;;1.30;;
6269;SDS011;3168;51.684;6.954;2023-04-24T12:09:24;2.50;;;2.07;;
6269;SDS011;3168;51.684;6.954;2023-04-24T12:11:52;2.03;;;1.97;;
6269;SDS011;3168;51.684;6.954;2023-04-24T12:14:17;2.10;;;1.23;;
6269;SDS011;3168;51.684;6.954;2023-04-24T12:16:47;0.97;;;0.97;;
6269;SDS011;3168;51.684;6.954;2023-04-24T12:19:09;3.17;;;1.90;;
6269;SDS011;3168;51.684;6.954;2023-04-24T12:21:35;1.60;;;1.50;;
6269;SDS011;3168;51.684;6.954;2023-04-24T12:24:01;1.60;;;1.50;;
6269;SDS011;3168;51.684;6.954;2023-04-24T12:26:26;19.43;;;1.67;;
6269;SDS011;3168;51.684;6.954;2023-04-24T12:28:52;2.80;;;1.30;;
6269;SDS011;3168;51.684;6.954;2023-04-24T12:31:20;1.60;;;1.50;;
6269;SDS011;3168;51.684;6.954;2023-04-24T12:33:45;1.37;;;1.00;;
6269;SDS011;3168;51.684;6.954;2023-04-24T12:36:11;2.73;;;0.80;;
6269;SDS011;3168;51.684;6.954;2023-04-24T12:38:37;0.70;;;0.70;;
6269;SDS011;3168;51.684;6.954;2023-04-24T12:41:03;0.73;;;0.73;;
6269;SDS011;3168;51.684;6.954;2023-04-24T12:43:29;4.10;;;1.37;;
6269;SDS011;3168;51.684;6.954;2023-04-24T12:45:55;0.80;;;0.70;;
6269;SDS011;3168;51.684;6.954;2023-04-24T12:48:21;1.00;;;1.00;;
6269;SDS011;3168;51.684;6.954;2023-04-24T12:50:47;0.77;;;0.77;;
6269;SDS011;3168;51.684;6.954;2023-04-24T12:53:13;1.20;;;1.20;;
6269;SDS011;3168;51.684;6.954;2023-04-24T12:55:39;1.10;;;1.10;;
6269;SDS011;3168;51.684;6.954;2023-04-24T12:58:05;1.00;;;1.00;;
6269;SDS011;3168;51.684;6.954;2023-04-24T13:00:32;1.07;;;1.07;;
6269;SDS011;3168;51.684;6.954;2023-04-24T13:02:57;2.07;;;1.40;;
6269;SDS011;3168;51.684;6.954;2023-04-24T13:05:23;1.30;;;1.20;;
6269;SDS011;3168;51.684;6.954;2023-04-24T13:07:49;0.90;;;0.90;;
6269;SDS011;3168;51.684;6.954;2023-04-24T13:10:15;3.33;;;1.17;;
6269;SDS011;3168;51.684;6.954;2023-04-24T13:12:41;1.10;;;1.10;;
6269;SDS011;3168;51.684;6.954;2023-04-24T13:15:07;1.67;;;0.87;;
6269;SDS011;3168;51.684;6.954;2023-04-24T13:17:33;1.20;;;1.10;;
6269;SDS011;3168;51.684;6.954;2023-04-24T13:20:00;1.50;;;1.50;;
6269;SDS011;3168;51.684;6.954;2023-04-24T13:22:26;8.03;;;1.53;;
6269;SDS011;3168;51.684;6.954;2023-04-24T13:24:52;0.80;;;0.80;;
6269;SDS011;3168;51.684;6.954;2023-04-24T13:27:18;1.27;;;1.20;;
6269;SDS011;3168;51.684;6.954;2023-04-24T13:29:44;1.10;;;1.10;;
6269;SDS011;3168;51.684;6.954;2023-04-24T13:32:10;3.50;;;1.07;;
6269;SDS011;3168;51.684;6.954;2023-04-24T13:34:36;1.33;;;1.23;;
6269;SDS011;3168;51.684;6.954;2023-04-24T13:37:02;0.97;;;0.97;;
6269;SDS011;3168;51.684;6.954;2023-04-24T13:39:27;1.23;;;1.20;;
6269;SDS011;3168;51.684;6.954;2023-04-24T13:41:53;4.93;;;1.23;;
6269;SDS011;3168;51.684;6.954;2023-04-24T13:44:19;1.10;;;1.00;;
6269;SDS011;3168;51.684;6.954;2023-04-24T13:46:46;5.10;;;1.30;;
6269;SDS011;3168;51.684;6.954;2023-04-24T13:49:11;1.83;;;1.73;;
6269;SDS011;3168;51.684;6.954;2023-04-24T13:51:38;1.27;;;1.00;;
6269;SDS011;3168;51.684;6.954;2023-04-24T13:54:04;1.43;;;1.43;;
6269;SDS011;3168;51.684;6.954;2023-04-24T13:56:30;1.77;;;1.67;;
6269;SDS011;3168;51.684;6.954;2023-04-24T13:58:56;1.37;;;1.37;;
6269;SDS011;3168;51.684;6.954;2023-04-24T14:01:22;1.93;;;1.83;;
6269;SDS011;3168;51.684;6.954;2023-04-24T14:03:47;2.70;;;1.27;;
6269;SDS011;3168;51.684;6.954;2023-04-24T14:06:13;10.13;;;1.70;;
6269;SDS011;3168;51.684;6.954;2023-04-24T14:08:39;1.27;;;1.23;;
6269;SDS011;3168;51.684;6.954;2023-04-24T14:11:05;2.77;;;1.23;;
6269;SDS011;3168;51.684;6.954;2023-04-24T14:13:31;1.70;;;1.70;;
6269;SDS011;3168;51.684;6.954;2023-04-24T14:15:57;1.53;;;1.50;;
6269;SDS011;3168;51.684;6.954;2023-04-24T14:18:22;1.53;;;1.43;;
6269;SDS011;3168;51.684;6.954;2023-04-24T14:20:48;4.60;;;1.23;;
6269;SDS011;3168;51.684;6.954;2023-04-24T14:23:15;2.10;;;1.00;;
6269;SDS011;3168;51.684;6.954;2023-04-24T14:25:40;1.00;;;1.00;;
6269;SDS011;3168;51.684;6.954;2023-04-24T14:28:06;1.20;;;1.20;;
6269;SDS011;3168;51.684;6.954;2023-04-24T14:30:31;1.37;;;1.37;;
6269;SDS011;3168;51.684;6.954;2023-04-24T14:32:57;3.17;;;1.20;;
6269;SDS011;3168;51.684;6.954;2023-04-24T14:35:23;1.70;;;1.37;;
6269;SDS011;3168;51.684;6.954;2023-04-24T14:37:49;1.87;;;1.20;;
6269;SDS011;3168;51.684;6.954;2023-04-24T14:40:15;2.20;;;1.20;;
6269;SDS011;3168;51.684;6.954;2023-04-24T14:42:41;1.73;;;1.60;;
6269;SDS011;3168;51.684;6.954;2023-04-24T14:45:07;2.23;;;2.03;;
6269;SDS011;3168;51.684;6.954;2023-04-24T14:47:33;2.20;;;1.97;;
6269;SDS011;3168;51.684;6.954;2023-04-24T14:49:59;1.57;;;1.57;;
6269;SDS011;3168;51.684;6.954;2023-04-24T14:52:25;4.83;;;1.57;;
6269;SDS011;3168;51.684;6.954;2023-04-24T14:54:51;1.83;;;1.30;;
6269;SDS011;3168;51.684;6.954;2023-04-24T14:57:17;1.73;;;1.63;;
6269;SDS011;3168;51.684;6.954;2023-04-24T14:59:43;1.37;;;1.37;;
6269;SDS011;3168;51.684;6.954;2023-04-24T15:02:09;1.20;;;1.20;;
6269;SDS011;3168;51.684;6.954;2023-04-24T15:04:35;2.70;;;1.70;;
6269;SDS011;3168;51.684;6.954;2023-04-24T15:07:00;1.93;;;1.83;;
6269;SDS011;3168;51.684;6.954;2023-04-24T15:09:26;2.07;;;1.13;;
6269;SDS011;3168;51.684;6.954;2023-04-24T15:11:52;1.90;;;1.40;;
6269;SDS011;3168;51.684;6.954;2023-04-24T15:14:18;1.30;;;1.30;;